sensor_id;sensor_type;location;lat;lon;timestamp;temperature;humidity
76897;SHT30;65856;52.178;21.176;2023-07-31T04:19:27;20.76;68.48
76897;SHT30;65856;52.178;21.176;2023-07-31T04:21:54;20.65;68.56
76897;SHT30;65856;52.178;21.176;2023-07-31T04:24:19;20.52;68.64
76897;SHT30;65856;52.178;21.176;2023-07-31T04:26:52;20.43;68.79
76897;SHT30;65856;52.178;21.176;2023-07-31T04:29:37;20.37;69.15
76897;SHT30;65856;52.178;21.176;2023-07-31T04:32:04;20.30;68.95
76897;SHT30;65856;52.178;21.176;2023-07-31T04:34:30;20.27;68.81
76897;SHT30;65856;52.178;21.176;2023-07-31T04:36:56;20.27;68.76
76897;SHT30;65856;52.178;21.176;2023-07-31T04:39:21;20.29;68.74
76897;SHT30;65856;52.178;21.176;2023-07-31T04:41:47;20.32;68.68
76897;SHT30;65856;52.178;21.176;2023-07-31T04:45:29;20.31;68.67
76897;SHT30;65856;52.178;21.176;2023-07-31T04:47:55;20.30;68.67
76897;SHT30;65856;52.178;21.176;2023-07-31T04:50:20;20.28;68.67
76897;SHT30;65856;52.178;21.176;2023-07-31T04:52:46;20.26;68.52
76897;SHT30;65856;52.178;21.176;2023-07-31T04:55:11;20.28;68.54
76897;SHT30;65856;52.178;21.176;2023-07-31T04:57:37;20.32;68.48
76897;SHT30;65856;52.178;21.176;2023-07-31T05:00:02;20.37;68.41
76897;SHT30;65856;52.178;21.176;2023-07-31T05:02:28;20.40;68.40
76897;SHT30;65856;52.178;21.176;2023-07-31T05:04:54;20.44;68.35
76897;SHT30;65856;52.178;21.176;2023-07-31T05:07:43;20.44;68.22
76897;SHT30;65856;52.178;21.176;2023-07-31T05:10:09;20.47;68.10
76897;SHT30;65856;52.178;21.176;2023-07-31T05:12:35;20.50;67.93
76897;SHT30;65856;52.178;21.176;2023-07-31T05:15:00;20.50;67.81
76897;SHT30;65856;52.178;21.176;2023-07-31T05:17:26;20.52;67.72
76897;SHT30;65856;52.178;21.176;2023-07-31T05:19:51;20.54;67.67
76897;SHT30;65856;52.178;21.176;2023-07-31T05:22:17;20.54;67.63
76897;SHT30;65856;52.178;21.176;2023-07-31T05:24:42;20.56;67.79
76897;SHT30;65856;52.178;21.176;2023-07-31T05:27:08;20.54;67.79
76897;SHT30;65856;52.178;21.176;2023-07-31T05:29:35;20.52;67.75
76897;SHT30;65856;52.178;21.176;2023-07-31T05:32:01;20.51;67.70
76897;SHT30;65856;52.178;21.176;2023-07-31T05:34:26;20.52;67.66
76897;SHT30;65856;52.178;21.176;2023-07-31T05:36:53;20.51;67.84
76897;SHT30;65856;52.178;21.176;2023-07-31T05:39:18;20.53;67.93
76897;SHT30;65856;52.178;21.176;2023-07-31T05:41:44;20.59;67.98
76897;SHT30;65856;52.178;21.176;2023-07-31T05:44:10;20.65;68.13
76897;SHT30;65856;52.178;21.176;2023-07-31T05:46:36;20.69;68.17
76897;SHT30;65856;52.178;21.176;2023-07-31T05:49:01;20.71;68.18
76897;SHT30;65856;52.178;21.176;2023-07-31T05:51:27;20.72;67.83
76897;SHT30;65856;52.178;21.176;2023-07-31T05:53:53;20.74;67.51
76897;SHT30;65856;52.178;21.176;2023-07-31T05:56:18;20.72;67.19
76897;SHT30;65856;52.178;21.176;2023-07-31T05:58:52;20.70;67.22
76897;SHT30;65856;52.178;21.176;2023-07-31T06:01:17;20.73;67.25
76897;SHT30;65856;52.178;21.176;2023-07-31T06:03:43;20.76;67.14
76897;SHT30;65856;52.178;21.176;2023-07-31T06:06:09;20.80;67.10
76897;SHT30;65856;52.178;21.176;2023-07-31T06:08:51;20.81;67.20
76897;SHT30;65856;52.178;21.176;2023-07-31T06:11:17;20.82;67.32
76897;SHT30;65856;52.178;21.176;2023-07-31T06:13:42;20.85;67.35
76897;SHT30;65856;52.178;21.176;2023-07-31T06:16:09;20.90;67.26
76897;SHT30;65856;52.178;21.176;2023-07-31T06:18:35;20.94;66.88
76897;SHT30;65856;52.178;21.176;2023-07-31T06:21:00;21.00;66.90
76897;SHT30;65856;52.178;21.176;2023-07-31T06:23:26;21.07;66.83
76897;SHT30;65856;52.178;21.176;2023-07-31T06:29:14;21.18;66.95
76897;SHT30;65856;52.178;21.176;2023-07-31T06:31:40;21.20;67.35
76897;SHT30;65856;52.178;21.176;2023-07-31T06:34:06;21.18;67.05
76897;SHT30;65856;52.178;21.176;2023-07-31T06:36:31;21.17;67.12
76897;SHT30;65856;52.178;21.176;2023-07-31T06:38:57;21.18;67.72
76897;SHT30;65856;52.178;21.176;2023-07-31T06:41:22;21.16;68.42
76897;SHT30;65856;52.178;21.176;2023-07-31T06:43:48;21.16;68.83
76897;SHT30;65856;52.178;21.176;2023-07-31T06:46:13;21.17;68.96
76897;SHT30;65856;52.178;21.176;2023-07-31T06:48:39;21.16;68.91
76897;SHT30;65856;52.178;21.176;2023-07-31T06:51:04;21.11;69.37
76897;SHT30;65856;52.178;21.176;2023-07-31T06:53:30;21.03;69.13
76897;SHT30;65856;52.178;21.176;2023-07-31T06:55:55;21.00;69.41
76897;SHT30;65856;52.178;21.176;2023-07-31T06:58:21;21.00;69.75
76897;SHT30;65856;52.178;21.176;2023-07-31T07:00:46;21.03;69.38
76897;SHT30;65856;52.178;21.176;2023-07-31T07:03:14;20.99;69.25
76897;SHT30;65856;52.178;21.176;2023-07-31T07:05:39;20.92;69.43
76897;SHT30;65856;52.178;21.176;2023-07-31T07:08:05;20.85;69.55
76897;SHT30;65856;52.178;21.176;2023-07-31T07:10:31;20.80;69.41
76897;SHT30;65856;52.178;21.176;2023-07-31T07:12:56;20.78;69.69
76897;SHT30;65856;52.178;21.176;2023-07-31T07:15:22;20.81;69.57
76897;SHT30;65856;52.178;21.176;2023-07-31T07:17:47;20.83;69.10
76897;SHT30;65856;52.178;21.176;2023-07-31T07:20:13;20.84;69.02
76897;SHT30;65856;52.178;21.176;2023-07-31T07:22:38;20.89;69.06
76897;SHT30;65856;52.178;21.176;2023-07-31T07:25:04;20.93;68.84
76897;SHT30;65856;52.178;21.176;2023-07-31T07:27:32;20.97;68.71
76897;SHT30;65856;52.178;21.176;2023-07-31T07:29:57;21.07;68.67
76897;SHT30;65856;52.178;21.176;2023-07-31T07:32:23;21.19;68.55
76897;SHT30;65856;52.178;21.176;2023-07-31T07:34:49;21.28;68.28
76897;SHT30;65856;52.178;21.176;2023-07-31T07:37:14;21.38;68.22
76897;SHT30;65856;52.178;21.176;2023-07-31T07:39:40;21.58;67.99
76897;SHT30;65856;52.178;21.176;2023-07-31T07:42:06;21.76;67.59
76897;SHT30;65856;52.178;21.176;2023-07-31T07:44:32;21.88;66.94
76897;SHT30;65856;52.178;21.176;2023-07-31T07:46:57;21.98;66.42
76897;SHT30;65856;52.178;21.176;2023-07-31T07:49:23;22.10;66.27
76897;SHT30;65856;52.178;21.176;2023-07-31T07:51:48;22.29;65.69
76897;SHT30;65856;52.178;21.176;2023-07-31T07:54:14;22.43;65.25
76897;SHT30;65856;52.178;21.176;2023-07-31T07:56:45;22.51;65.01
76897;SHT30;65856;52.178;21.176;2023-07-31T07:59:10;22.62;64.83
76897;SHT30;65856;52.178;21.176;2023-07-31T08:01:36;22.71;64.27
76897;SHT30;65856;52.178;21.176;2023-07-31T08:04:01;22.84;63.93
76897;SHT30;65856;52.178;21.176;2023-07-31T08:06:27;22.94;63.22
76897;SHT30;65856;52.178;21.176;2023-07-31T08:08:52;22.98;63.10
76897;SHT30;65856;52.178;21.176;2023-07-31T08:11:18;23.09;62.85
76897;SHT30;65856;52.178;21.176;2023-07-31T08:13:43;23.27;62.70
76897;SHT30;65856;52.178;21.176;2023-07-31T08:16:09;23.54;62.20
76897;SHT30;65856;52.178;21.176;2023-07-31T08:18:34;23.76;61.63
76897;SHT30;65856;52.178;21.176;2023-07-31T08:21:01;23.93;61.12
76897;SHT30;65856;52.178;21.176;2023-07-31T08:23:27;24.14;60.28
76897;SHT30;65856;52.178;21.176;2023-07-31T08:25:53;24.40;59.72
76897;SHT30;65856;52.178;21.176;2023-07-31T08:28:19;24.70;59.27
76897;SHT30;65856;52.178;21.176;2023-07-31T08:30:44;24.95;58.54
76897;SHT30;65856;52.178;21.176;2023-07-31T08:33:10;25.22;57.85
76897;SHT30;65856;52.178;21.176;2023-07-31T08:35:36;25.48;57.69
76897;SHT30;65856;52.178;21.176;2023-07-31T08:38:01;25.77;57.03
76897;SHT30;65856;52.178;21.176;2023-07-31T08:40:28;26.01;55.84
76897;SHT30;65856;52.178;21.176;2023-07-31T08:42:54;26.23;55.13
76897;SHT30;65856;52.178;21.176;2023-07-31T08:45:27;26.49;54.63
76897;SHT30;65856;52.178;21.176;2023-07-31T08:47:54;26.77;53.91
76897;SHT30;65856;52.178;21.176;2023-07-31T08:50:22;26.97;53.06
76897;SHT30;65856;52.178;21.176;2023-07-31T08:52:49;27.15;52.23
76897;SHT30;65856;52.178;21.176;2023-07-31T08:55:17;27.35;51.51
76897;SHT30;65856;52.178;21.176;2023-07-31T08:57:48;27.55;50.21
76897;SHT30;65856;52.178;21.176;2023-07-31T09:00:18;27.59;49.16
76897;SHT30;65856;52.178;21.176;2023-07-31T09:02:48;27.72;49.52
76897;SHT30;65856;52.178;21.176;2023-07-31T09:05:53;27.89;48.93
76897;SHT30;65856;52.178;21.176;2023-07-31T09:08:22;27.90;48.36
76897;SHT30;65856;52.178;21.176;2023-07-31T09:10:52;28.00;48.11
76897;SHT30;65856;52.178;21.176;2023-07-31T09:13:17;28.22;47.63
76897;SHT30;65856;52.178;21.176;2023-07-31T09:15:43;28.34;46.70
76897;SHT30;65856;52.178;21.176;2023-07-31T09:18:11;28.41;46.31
76897;SHT30;65856;52.178;21.176;2023-07-31T09:20:37;28.59;45.91
76897;SHT30;65856;52.178;21.176;2023-07-31T09:23:07;28.77;45.06
76897;SHT30;65856;52.178;21.176;2023-07-31T09:25:41;28.89;45.02
76897;SHT30;65856;52.178;21.176;2023-07-31T09:28:11;28.96;44.58
76897;SHT30;65856;52.178;21.176;2023-07-31T09:30:55;28.99;44.71
76897;SHT30;65856;52.178;21.176;2023-07-31T09:33:20;29.13;45.09
76897;SHT30;65856;52.178;21.176;2023-07-31T09:35:46;29.24;44.85
76897;SHT30;65856;52.178;21.176;2023-07-31T09:38:13;29.30;44.80
76897;SHT30;65856;52.178;21.176;2023-07-31T09:40:41;29.41;44.78
76897;SHT30;65856;52.178;21.176;2023-07-31T09:43:13;29.61;44.04
76897;SHT30;65856;52.178;21.176;2023-07-31T09:45:45;29.72;43.56
76897;SHT30;65856;52.178;21.176;2023-07-31T09:48:15;29.88;42.67
76897;SHT30;65856;52.178;21.176;2023-07-31T09:50:47;29.83;42.12
76897;SHT30;65856;52.178;21.176;2023-07-31T09:53:14;29.76;42.23
76897;SHT30;65856;52.178;21.176;2023-07-31T09:55:44;29.82;42.44
76897;SHT30;65856;52.178;21.176;2023-07-31T09:58:10;29.96;42.44
76897;SHT30;65856;52.178;21.176;2023-07-31T10:00:38;30.12;42.18
76897;SHT30;65856;52.178;21.176;2023-07-31T10:03:05;30.25;41.51
76897;SHT30;65856;52.178;21.176;2023-07-31T10:05:36;30.41;41.22
76897;SHT30;65856;52.178;21.176;2023-07-31T10:08:09;30.55;41.06
76897;SHT30;65856;52.178;21.176;2023-07-31T10:10:40;30.60;40.76
76897;SHT30;65856;52.178;21.176;2023-07-31T10:13:09;30.52;40.46
76897;SHT30;65856;52.178;21.176;2023-07-31T10:15:34;30.52;40.31
76897;SHT30;65856;52.178;21.176;2023-07-31T10:18:01;30.59;39.97
76897;SHT30;65856;52.178;21.176;2023-07-31T10:20:27;30.59;39.98
76897;SHT30;65856;52.178;21.176;2023-07-31T10:22:54;30.64;40.07
76897;SHT30;65856;52.178;21.176;2023-07-31T10:25:21;30.63;39.98
76897;SHT30;65856;52.178;21.176;2023-07-31T10:27:47;30.67;39.69
76897;SHT30;65856;52.178;21.176;2023-07-31T10:30:16;30.61;39.83
76897;SHT30;65856;52.178;21.176;2023-07-31T10:32:45;30.58;39.95
76897;SHT30;65856;52.178;21.176;2023-07-31T10:35:14;30.44;39.99
76897;SHT30;65856;52.178;21.176;2023-07-31T10:37:43;30.18;40.33
76897;SHT30;65856;52.178;21.176;2023-07-31T10:40:19;29.90;40.37
76897;SHT30;65856;52.178;21.176;2023-07-31T10:45:33;29.85;39.93
76897;SHT30;65856;52.178;21.176;2023-07-31T10:50:49;29.65;40.43
76897;SHT30;65856;52.178;21.176;2023-07-31T10:55:56;29.74;40.00
76897;SHT30;65856;52.178;21.176;2023-07-31T10:58:28;29.70;40.11
76897;SHT30;65856;52.178;21.176;2023-07-31T11:00:57;29.65;40.22
76897;SHT30;65856;52.178;21.176;2023-07-31T11:03:26;29.57;39.90
76897;SHT30;65856;52.178;21.176;2023-07-31T11:06:17;29.45;40.10
76897;SHT30;65856;52.178;21.176;2023-07-31T11:08:47;29.41;39.77
76897;SHT30;65856;52.178;21.176;2023-07-31T11:11:18;29.30;39.67
76897;SHT30;65856;52.178;21.176;2023-07-31T11:16:16;29.30;39.39
76897;SHT30;65856;52.178;21.176;2023-07-31T11:18:45;29.21;38.78
76897;SHT30;65856;52.178;21.176;2023-07-31T11:21:22;29.15;39.13
76897;SHT30;65856;52.178;21.176;2023-07-31T11:23:50;29.14;39.55
76897;SHT30;65856;52.178;21.176;2023-07-31T11:26:22;28.97;39.38
76897;SHT30;65856;52.178;21.176;2023-07-31T11:28:50;28.81;39.27
76897;SHT30;65856;52.178;21.176;2023-07-31T11:31:17;28.80;39.87
76897;SHT30;65856;52.178;21.176;2023-07-31T11:33:43;28.81;39.29
76897;SHT30;65856;52.178;21.176;2023-07-31T11:36:16;28.75;39.59
76897;SHT30;65856;52.178;21.176;2023-07-31T11:38:45;28.69;39.38
76897;SHT30;65856;52.178;21.176;2023-07-31T11:41:13;28.63;38.90
76897;SHT30;65856;52.178;21.176;2023-07-31T11:43:41;28.67;39.45
76897;SHT30;65856;52.178;21.176;2023-07-31T11:46:07;28.67;38.99
76897;SHT30;65856;52.178;21.176;2023-07-31T11:48:35;28.51;39.47
76897;SHT30;65856;52.178;21.176;2023-07-31T11:51:08;28.42;39.69
76897;SHT30;65856;52.178;21.176;2023-07-31T11:53:41;28.25;38.96
76897;SHT30;65856;52.178;21.176;2023-07-31T11:56:12;28.16;39.55
76897;SHT30;65856;52.178;21.176;2023-07-31T11:58:44;28.14;39.29
76897;SHT30;65856;52.178;21.176;2023-07-31T12:01:23;28.12;40.01
76897;SHT30;65856;52.178;21.176;2023-07-31T12:03:52;28.16;40.53
76897;SHT30;65856;52.178;21.176;2023-07-31T12:06:19;28.23;40.44
76897;SHT30;65856;52.178;21.176;2023-07-31T12:08:46;28.25;40.27
76897;SHT30;65856;52.178;21.176;2023-07-31T12:11:12;28.23;40.16
76897;SHT30;65856;52.178;21.176;2023-07-31T12:13:42;28.17;40.18
76897;SHT30;65856;52.178;21.176;2023-07-31T12:16:08;28.08;40.28
76897;SHT30;65856;52.178;21.176;2023-07-31T12:18:34;27.95;39.79
76897;SHT30;65856;52.178;21.176;2023-07-31T12:21:04;27.87;39.42
76897;SHT30;65856;52.178;21.176;2023-07-31T12:23:33;27.77;40.08
76897;SHT30;65856;52.178;21.176;2023-07-31T12:28:49;27.79;40.42
76897;SHT30;65856;52.178;21.176;2023-07-31T12:31:17;27.79;40.06
76897;SHT30;65856;52.178;21.176;2023-07-31T12:33:46;27.74;39.70
76897;SHT30;65856;52.178;21.176;2023-07-31T12:36:20;27.70;39.46
76897;SHT30;65856;52.178;21.176;2023-07-31T12:38:50;27.67;40.22
76897;SHT30;65856;52.178;21.176;2023-07-31T12:41:17;27.66;39.94
76897;SHT30;65856;52.178;21.176;2023-07-31T12:43:44;27.62;39.50
76897;SHT30;65856;52.178;21.176;2023-07-31T12:46:11;27.55;39.48
76897;SHT30;65856;52.178;21.176;2023-07-31T12:48:37;27.44;39.38
76897;SHT30;65856;52.178;21.176;2023-07-31T12:51:04;27.39;39.70
76897;SHT30;65856;52.178;21.176;2023-07-31T12:53:31;27.33;39.82
76897;SHT30;65856;52.178;21.176;2023-07-31T12:55:57;27.28;39.77
76897;SHT30;65856;52.178;21.176;2023-07-31T12:58:22;27.26;39.56
76897;SHT30;65856;52.178;21.176;2023-07-31T13:00:49;27.14;39.27
76897;SHT30;65856;52.178;21.176;2023-07-31T13:03:14;27.05;39.71
76897;SHT30;65856;52.178;21.176;2023-07-31T13:05:40;27.02;39.61
76897;SHT30;65856;52.178;21.176;2023-07-31T13:08:05;27.05;40.28
76897;SHT30;65856;52.178;21.176;2023-07-31T13:10:31;27.05;40.22
76897;SHT30;65856;52.178;21.176;2023-07-31T13:12:56;27.05;40.37
76897;SHT30;65856;52.178;21.176;2023-07-31T13:15:22;27.10;39.53
76897;SHT30;65856;52.178;21.176;2023-07-31T13:17:48;27.04;39.96
76897;SHT30;65856;52.178;21.176;2023-07-31T13:20:14;26.99;40.46
76897;SHT30;65856;52.178;21.176;2023-07-31T13:22:40;27.00;40.08
76897;SHT30;65856;52.178;21.176;2023-07-31T13:25:06;27.04;40.13
76897;SHT30;65856;52.178;21.176;2023-07-31T13:27:32;27.13;40.56
76897;SHT30;65856;52.178;21.176;2023-07-31T13:29:57;27.17;40.68
76897;SHT30;65856;52.178;21.176;2023-07-31T13:32:23;27.13;40.61
76897;SHT30;65856;52.178;21.176;2023-07-31T13:34:49;27.11;40.30
76897;SHT30;65856;52.178;21.176;2023-07-31T13:37:15;27.08;40.38
76897;SHT30;65856;52.178;21.176;2023-07-31T13:39:41;27.02;40.51
76897;SHT30;65856;52.178;21.176;2023-07-31T13:42:08;27.04;40.31
76897;SHT30;65856;52.178;21.176;2023-07-31T13:44:37;27.12;40.25
76897;SHT30;65856;52.178;21.176;2023-07-31T13:47:04;27.16;39.95
76897;SHT30;65856;52.178;21.176;2023-07-31T13:49:30;27.15;40.08
76897;SHT30;65856;52.178;21.176;2023-07-31T13:51:58;27.09;40.00
76897;SHT30;65856;52.178;21.176;2023-07-31T13:54:23;27.11;40.91
76897;SHT30;65856;52.178;21.176;2023-07-31T13:56:50;27.20;40.94
76897;SHT30;65856;52.178;21.176;2023-07-31T13:59:16;27.24;40.08
76897;SHT30;65856;52.178;21.176;2023-07-31T14:01:45;27.20;40.41
76897;SHT30;65856;52.178;21.176;2023-07-31T14:04:11;27.23;41.12
76897;SHT30;65856;52.178;21.176;2023-07-31T14:06:37;27.26;40.53
76897;SHT30;65856;52.178;21.176;2023-07-31T14:09:02;27.31;40.56
76897;SHT30;65856;52.178;21.176;2023-07-31T14:11:28;27.31;39.88
76897;SHT30;65856;52.178;21.176;2023-07-31T14:13:56;27.29;39.90
76897;SHT30;65856;52.178;21.176;2023-07-31T14:16:22;27.26;39.91
76897;SHT30;65856;52.178;21.176;2023-07-31T14:18:48;27.17;39.62
76897;SHT30;65856;52.178;21.176;2023-07-31T14:21:14;27.03;39.91
76897;SHT30;65856;52.178;21.176;2023-07-31T14:23:40;26.90;40.54
76897;SHT30;65856;52.178;21.176;2023-07-31T14:26:06;26.78;40.79
76897;SHT30;65856;52.178;21.176;2023-07-31T14:28:32;26.73;40.92
76897;SHT30;65856;52.178;21.176;2023-07-31T14:30:58;26.66;40.82
76897;SHT30;65856;52.178;21.176;2023-07-31T14:33:23;26.62;41.37
76897;SHT30;65856;52.178;21.176;2023-07-31T14:35:49;26.64;41.60
76897;SHT30;65856;52.178;21.176;2023-07-31T14:38:14;26.68;41.82
76897;SHT30;65856;52.178;21.176;2023-07-31T14:40:40;26.71;41.76
76897;SHT30;65856;52.178;21.176;2023-07-31T14:43:06;26.72;41.71
76897;SHT30;65856;52.178;21.176;2023-07-31T14:45:32;26.73;41.71
76897;SHT30;65856;52.178;21.176;2023-07-31T14:47:57;26.74;42.29
76897;SHT30;65856;52.178;21.176;2023-07-31T14:50:23;26.76;42.59
76897;SHT30;65856;52.178;21.176;2023-07-31T14:52:50;26.78;41.76
76897;SHT30;65856;52.178;21.176;2023-07-31T14:55:16;26.77;41.55
76897;SHT30;65856;52.178;21.176;2023-07-31T14:57:41;26.74;41.41
76897;SHT30;65856;52.178;21.176;2023-07-31T15:00:07;26.74;41.58
76897;SHT30;65856;52.178;21.176;2023-07-31T15:02:34;26.73;41.65
76897;SHT30;65856;52.178;21.176;2023-07-31T15:05:00;26.73;41.64
76897;SHT30;65856;52.178;21.176;2023-07-31T15:07:26;26.74;41.74
76897;SHT30;65856;52.178;21.176;2023-07-31T15:09:52;26.70;41.92
76897;SHT30;65856;52.178;21.176;2023-07-31T15:12:17;26.59;41.40
76897;SHT30;65856;52.178;21.176;2023-07-31T15:14:43;26.56;41.63
76897;SHT30;65856;52.178;21.176;2023-07-31T15:17:08;26.50;41.65
76897;SHT30;65856;52.178;21.176;2023-07-31T15:19:34;26.49;42.16
76897;SHT30;65856;52.178;21.176;2023-07-31T15:22:01;26.48;42.40
76897;SHT30;65856;52.178;21.176;2023-07-31T15:24:28;26.48;42.07
76897;SHT30;65856;52.178;21.176;2023-07-31T15:26:54;26.44;41.47
76897;SHT30;65856;52.178;21.176;2023-07-31T15:29:20;26.41;41.92
76897;SHT30;65856;52.178;21.176;2023-07-31T15:31:46;26.42;41.70
76897;SHT30;65856;52.178;21.176;2023-07-31T15:34:13;26.44;41.60
76897;SHT30;65856;52.178;21.176;2023-07-31T15:36:40;26.42;41.92
76897;SHT30;65856;52.178;21.176;2023-07-31T15:39:06;26.43;41.65
76897;SHT30;65856;52.178;21.176;2023-07-31T15:41:36;26.46;42.16
76897;SHT30;65856;52.178;21.176;2023-07-31T15:44:03;26.51;42.31
76897;SHT30;65856;52.178;21.176;2023-07-31T15:46:30;26.54;42.02
76897;SHT30;65856;52.178;21.176;2023-07-31T15:48:56;26.54;42.12
76897;SHT30;65856;52.178;21.176;2023-07-31T15:51:22;26.55;41.76
76897;SHT30;65856;52.178;21.176;2023-07-31T15:53:49;26.58;41.96
76897;SHT30;65856;52.178;21.176;2023-07-31T15:56:15;26.59;41.96
76897;SHT30;65856;52.178;21.176;2023-07-31T15:58:41;26.56;42.45
76897;SHT30;65856;52.178;21.176;2023-07-31T16:01:07;26.55;42.83
76897;SHT30;65856;52.178;21.176;2023-07-31T16:03:33;26.52;43.03
76897;SHT30;65856;52.178;21.176;2023-07-31T16:05:58;26.48;42.70
76897;SHT30;65856;52.178;21.176;2023-07-31T16:08:24;26.46;42.89
76897;SHT30;65856;52.178;21.176;2023-07-31T16:10:49;26.40;42.67
76897;SHT30;65856;52.178;21.176;2023-07-31T16:13:16;26.33;43.09
76897;SHT30;65856;52.178;21.176;2023-07-31T16:15:41;26.30;43.21
76897;SHT30;65856;52.178;21.176;2023-07-31T16:18:07;26.27;43.19
76897;SHT30;65856;52.178;21.176;2023-07-31T16:20:33;26.25;43.42
76897;SHT30;65856;52.178;21.176;2023-07-31T16:23:00;26.23;43.51
76897;SHT30;65856;52.178;21.176;2023-07-31T16:25:26;26.21;43.36
76897;SHT30;65856;52.178;21.176;2023-07-31T16:27:52;26.17;43.29
76897;SHT30;65856;52.178;21.176;2023-07-31T16:30:17;26.12;43.37
76897;SHT30;65856;52.178;21.176;2023-07-31T16:32:43;26.11;43.90
76897;SHT30;65856;52.178;21.176;2023-07-31T16:35:10;26.12;43.87
76897;SHT30;65856;52.178;21.176;2023-07-31T16:37:35;26.12;44.02
76897;SHT30;65856;52.178;21.176;2023-07-31T16:40:02;26.08;44.32
76897;SHT30;65856;52.178;21.176;2023-07-31T16:42:28;26.07;44.38
76897;SHT30;65856;52.178;21.176;2023-07-31T16:44:53;26.03;44.44
76897;SHT30;65856;52.178;21.176;2023-07-31T16:47:19;25.98;44.63
76897;SHT30;65856;52.178;21.176;2023-07-31T16:49:44;25.93;44.97
76897;SHT30;65856;52.178;21.176;2023-07-31T16:52:10;25.90;44.99
76897;SHT30;65856;52.178;21.176;2023-07-31T16:54:35;25.88;44.77
76897;SHT30;65856;52.178;21.176;2023-07-31T16:57:01;25.85;44.87
76897;SHT30;65856;52.178;21.176;2023-07-31T16:59:27;25.82;45.06
76897;SHT30;65856;52.178;21.176;2023-07-31T17:01:53;25.78;45.67
76897;SHT30;65856;52.178;21.176;2023-07-31T17:04:18;25.74;46.91
76897;SHT30;65856;52.178;21.176;2023-07-31T17:06:44;25.68;47.41
76897;SHT30;65856;52.178;21.176;2023-07-31T17:09:10;25.64;47.60
76897;SHT30;65856;52.178;21.176;2023-07-31T17:11:35;25.59;47.97
76897;SHT30;65856;52.178;21.176;2023-07-31T17:14:02;25.53;48.33
76897;SHT30;65856;52.178;21.176;2023-07-31T17:16:31;25.49;48.65
76897;SHT30;65856;52.178;21.176;2023-07-31T17:18:59;25.44;49.04
76897;SHT30;65856;52.178;21.176;2023-07-31T17:21:26;25.41;49.67
76897;SHT30;65856;52.178;21.176;2023-07-31T17:23:52;25.37;50.31
76897;SHT30;65856;52.178;21.176;2023-07-31T17:26:18;25.32;50.38
76897;SHT30;65856;52.178;21.176;2023-07-31T17:28:44;25.25;50.06
76897;SHT30;65856;52.178;21.176;2023-07-31T17:31:10;25.21;50.67
76897;SHT30;65856;52.178;21.176;2023-07-31T17:33:37;25.20;50.01
76897;SHT30;65856;52.178;21.176;2023-07-31T17:36:05;25.17;50.49
76897;SHT30;65856;52.178;21.176;2023-07-31T17:38:30;25.13;51.08
76897;SHT30;65856;52.178;21.176;2023-07-31T17:40:56;25.08;51.24
76897;SHT30;65856;52.178;21.176;2023-07-31T17:43:22;25.04;51.57
76897;SHT30;65856;52.178;21.176;2023-07-31T17:45:49;25.02;51.01
76897;SHT30;65856;52.178;21.176;2023-07-31T17:48:14;24.98;50.96
76897;SHT30;65856;52.178;21.176;2023-07-31T17:50:40;24.94;52.61
76897;SHT30;65856;52.178;21.176;2023-07-31T17:53:05;24.90;52.93
76897;SHT30;65856;52.178;21.176;2023-07-31T17:55:31;24.85;53.40
76897;SHT30;65856;52.178;21.176;2023-07-31T17:57:56;24.81;54.20
76897;SHT30;65856;52.178;21.176;2023-07-31T18:00:22;24.74;54.30
76897;SHT30;65856;52.178;21.176;2023-07-31T18:02:48;24.67;53.41
76897;SHT30;65856;52.178;21.176;2023-07-31T18:05:14;24.63;52.43
76897;SHT30;65856;52.178;21.176;2023-07-31T18:07:40;24.60;52.32
76897;SHT30;65856;52.178;21.176;2023-07-31T18:10:05;24.55;51.79
76897;SHT30;65856;52.178;21.176;2023-07-31T18:12:36;24.51;51.35
76897;SHT30;65856;52.178;21.176;2023-07-31T18:15:02;24.41;50.96
76897;SHT30;65856;52.178;21.176;2023-07-31T18:17:29;24.29;50.44
76897;SHT30;65856;52.178;21.176;2023-07-31T18:19:55;24.17;50.61
76897;SHT30;65856;52.178;21.176;2023-07-31T18:22:21;24.10;51.02
76897;SHT30;65856;52.178;21.176;2023-07-31T18:24:47;24.05;51.28
76897;SHT30;65856;52.178;21.176;2023-07-31T18:27:13;24.01;51.42
76897;SHT30;65856;52.178;21.176;2023-07-31T18:29:42;23.99;51.74
76897;SHT30;65856;52.178;21.176;2023-07-31T18:32:09;23.98;51.82
76897;SHT30;65856;52.178;21.176;2023-07-31T18:34:35;23.97;51.82
76897;SHT30;65856;52.178;21.176;2023-07-31T18:37:00;23.95;51.92
76897;SHT30;65856;52.178;21.176;2023-07-31T18:39:26;23.95;52.04
76897;SHT30;65856;52.178;21.176;2023-07-31T18:41:51;23.94;52.17
76897;SHT30;65856;52.178;21.176;2023-07-31T18:44:17;23.93;52.68
76897;SHT30;65856;52.178;21.176;2023-07-31T18:46:42;23.89;52.86
76897;SHT30;65856;52.178;21.176;2023-07-31T18:49:08;23.85;53.64
76897;SHT30;65856;52.178;21.176;2023-07-31T18:51:33;23.80;53.94
76897;SHT30;65856;52.178;21.176;2023-07-31T18:54:02;23.74;54.13
76897;SHT30;65856;52.178;21.176;2023-07-31T18:56:29;23.68;54.72
76897;SHT30;65856;52.178;21.176;2023-07-31T18:58:55;23.61;55.13
76897;SHT30;65856;52.178;21.176;2023-07-31T19:01:20;23.53;55.10
76897;SHT30;65856;52.178;21.176;2023-07-31T19:03:48;23.41;55.06
76897;SHT30;65856;52.178;21.176;2023-07-31T19:06:14;23.31;55.17
76897;SHT30;65856;52.178;21.176;2023-07-31T19:08:39;23.24;56.18
76897;SHT30;65856;52.178;21.176;2023-07-31T19:11:05;23.15;56.11
76897;SHT30;65856;52.178;21.176;2023-07-31T19:13:30;23.07;56.22
76897;SHT30;65856;52.178;21.176;2023-07-31T19:15:55;22.97;56.33
76897;SHT30;65856;52.178;21.176;2023-07-31T19:18:21;22.89;56.55
76897;SHT30;65856;52.178;21.176;2023-07-31T19:20:46;22.81;56.99
76897;SHT30;65856;52.178;21.176;2023-07-31T19:23:12;22.74;57.27
76897;SHT30;65856;52.178;21.176;2023-07-31T19:25:38;22.69;57.73
76897;SHT30;65856;52.178;21.176;2023-07-31T19:28:03;22.65;58.01
76897;SHT30;65856;52.178;21.176;2023-07-31T19:30:29;22.60;58.17
76897;SHT30;65856;52.178;21.176;2023-07-31T19:32:54;22.55;58.53
76897;SHT30;65856;52.178;21.176;2023-07-31T19:35:21;22.50;58.23
76897;SHT30;65856;52.178;21.176;2023-07-31T19:37:51;22.44;58.26
76897;SHT30;65856;52.178;21.176;2023-07-31T19:40:18;22.41;58.44
76897;SHT30;65856;52.178;21.176;2023-07-31T19:42:48;22.39;58.53
76897;SHT30;65856;52.178;21.176;2023-07-31T19:45:14;22.38;59.29
76897;SHT30;65856;52.178;21.176;2023-07-31T19:47:39;22.38;59.33
76897;SHT30;65856;52.178;21.176;2023-07-31T19:50:05;22.37;59.04